sensor_id;sensor_type;location;lat;lon;timestamp;P1;durP1;ratioP1;P2;durP2;ratioP2
15228;SDS011;7717;47.792;12.076;2023-11-18T00:00:57;2.00;;;1.90;;
15228;SDS011;7717;47.792;12.076;2023-11-18T00:03:23;1.67;;;1.57;;
15228;SDS011;7717;47.792;12.076;2023-11-18T00:05:49;2.40;;;2.20;;
15228;SDS011;7717;47.792;12.076;2023-11-18T00:08:15;2.53;;;2.33;;
15228;SDS011;7717;47.792;12.076;2023-11-18T00:10:40;1.87;;;1.77;;
15228;SDS011;7717;47.792;12.076;2023-11-18T00:13:05;2.17;;;2.03;;
15228;SDS011;7717;47.792;12.076;2023-11-18T00:15:31;4.77;;;2.43;;
15228;SDS011;7717;47.792;12.076;2023-11-18T00:17:59;2.23;;;2.03;;
15228;SDS011;7717;47.792;12.076;2023-11-18T00:20:25;1.80;;;1.70;;
15228;SDS011;7717;47.792;12.076;2023-11-18T00:22:50;1.83;;;1.73;;
15228;SDS011;7717;47.792;12.076;2023-11-18T00:25:17;1.97;;;1.87;;
15228;SDS011;7717;47.792;12.076;2023-11-18T00:27:43;2.20;;;2.00;;
15228;SDS011;7717;47.792;12.076;2023-11-18T00:30:08;2.73;;;1.83;;
15228;SDS011;7717;47.792;12.076;2023-11-18T00:32:35;1.93;;;1.73;;
15228;SDS011;7717;47.792;12.076;2023-11-18T00:35:01;2.10;;;2.00;;
15228;SDS011;7717;47.792;12.076;2023-11-18T00:37:29;2.83;;;2.20;;
15228;SDS011;7717;47.792;12.076;2023-11-18T00:39:55;2.50;;;2.30;;
15228;SDS011;7717;47.792;12.076;2023-11-18T00:42:21;3.40;;;2.30;;
15228;SDS011;7717;47.792;12.076;2023-11-18T00:44:49;2.20;;;2.00;;
15228;SDS011;7717;47.792;12.076;2023-11-18T00:47:15;1.50;;;1.40;;
15228;SDS011;7717;47.792;12.076;2023-11-18T00:49:43;1.80;;;1.53;;
15228;SDS011;7717;47.792;12.076;2023-11-18T00:52:09;1.70;;;1.60;;
15228;SDS011;7717;47.792;12.076;2023-11-18T00:54:34;2.20;;;2.00;;
15228;SDS011;7717;47.792;12.076;2023-11-18T00:57:00;2.57;;;1.90;;
15228;SDS011;7717;47.792;12.076;2023-11-18T00:59:25;2.63;;;1.80;;
15228;SDS011;7717;47.792;12.076;2023-11-18T01:01:55;1.93;;;1.73;;
15228;SDS011;7717;47.792;12.076;2023-11-18T01:04:20;2.53;;;1.70;;
15228;SDS011;7717;47.792;12.076;2023-11-18T01:06:45;2.03;;;1.80;;
15228;SDS011;7717;47.792;12.076;2023-11-18T01:09:12;2.93;;;1.67;;
15228;SDS011;7717;47.792;12.076;2023-11-18T01:11:38;1.50;;;1.40;;
15228;SDS011;7717;47.792;12.076;2023-11-18T01:14:03;2.00;;;1.80;;
15228;SDS011;7717;47.792;12.076;2023-11-18T01:16:29;1.63;;;1.50;;
15228;SDS011;7717;47.792;12.076;2023-11-18T01:18:58;2.23;;;1.50;;
15228;SDS011;7717;47.792;12.076;2023-11-18T01:21:24;1.80;;;1.10;;
15228;SDS011;7717;47.792;12.076;2023-11-18T01:23:49;1.27;;;1.17;;
15228;SDS011;7717;47.792;12.076;2023-11-18T01:26:15;2.27;;;1.40;;
15228;SDS011;7717;47.792;12.076;2023-11-18T01:28:41;1.60;;;1.50;;
15228;SDS011;7717;47.792;12.076;2023-11-18T01:31:07;1.63;;;1.30;;
15228;SDS011;7717;47.792;12.076;2023-11-18T01:33:39;1.20;;;1.10;;
15228;SDS011;7717;47.792;12.076;2023-11-18T01:36:05;0.83;;;0.83;;
15228;SDS011;7717;47.792;12.076;2023-11-18T01:38:33;1.07;;;0.90;;
15228;SDS011;7717;47.792;12.076;2023-11-18T01:40:59;0.80;;;0.80;;
15228;SDS011;7717;47.792;12.076;2023-11-18T01:43:25;0.80;;;0.80;;
15228;SDS011;7717;47.792;12.076;2023-11-18T01:45:52;1.00;;;0.80;;
15228;SDS011;7717;47.792;12.076;2023-11-18T01:48:21;0.60;;;0.60;;
15228;SDS011;7717;47.792;12.076;2023-11-18T01:50:47;1.10;;;0.83;;
15228;SDS011;7717;47.792;12.076;2023-11-18T01:53:13;0.60;;;0.60;;
15228;SDS011;7717;47.792;12.076;2023-11-18T01:55:42;0.53;;;0.53;;
15228;SDS011;7717;47.792;12.076;2023-11-18T01:58:07;0.57;;;0.57;;
15228;SDS011;7717;47.792;12.076;2023-11-18T02:00:39;1.03;;;0.90;;
15228;SDS011;7717;47.792;12.076;2023-11-18T02:03:11;0.93;;;0.90;;
15228;SDS011;7717;47.792;12.076;2023-11-18T02:05:37;0.70;;;0.60;;
15228;SDS011;7717;47.792;12.076;2023-11-18T02:08:04;0.60;;;0.60;;
15228;SDS011;7717;47.792;12.076;2023-11-18T02:10:30;0.60;;;0.60;;
15228;SDS011;7717;47.792;12.076;2023-11-18T02:13:04;0.80;;;0.80;;
15228;SDS011;7717;47.792;12.076;2023-11-18T02:15:37;0.70;;;0.70;;
15228;SDS011;7717;47.792;12.076;2023-11-18T02:18:06;0.47;;;0.47;;
15228;SDS011;7717;47.792;12.076;2023-11-18T02:20:35;1.57;;;0.80;;
15228;SDS011;7717;47.792;12.076;2023-11-18T02:23:01;1.50;;;0.83;;
15228;SDS011;7717;47.792;12.076;2023-11-18T02:25:27;1.87;;;1.00;;
15228;SDS011;7717;47.792;12.076;2023-11-18T02:27:55;0.67;;;0.67;;
15228;SDS011;7717;47.792;12.076;2023-11-18T02:30:20;1.03;;;1.00;;
15228;SDS011;7717;47.792;12.076;2023-11-18T02:32:54;1.10;;;1.03;;
15228;SDS011;7717;47.792;12.076;2023-11-18T02:35:25;0.80;;;0.80;;
15228;SDS011;7717;47.792;12.076;2023-11-18T02:37:55;1.20;;;1.10;;
15228;SDS011;7717;47.792;12.076;2023-11-18T02:40:29;1.93;;;1.20;;
15228;SDS011;7717;47.792;12.076;2023-11-18T02:42:59;1.03;;;1.03;;
15228;SDS011;7717;47.792;12.076;2023-11-18T02:45:26;1.00;;;1.00;;
15228;SDS011;7717;47.792;12.076;2023-11-18T02:47:52;0.90;;;0.90;;
15228;SDS011;7717;47.792;12.076;2023-11-18T02:50:23;1.00;;;1.00;;
15228;SDS011;7717;47.792;12.076;2023-11-18T02:52:57;1.10;;;1.00;;
15228;SDS011;7717;47.792;12.076;2023-11-18T02:55:22;1.43;;;1.20;;
15228;SDS011;7717;47.792;12.076;2023-11-18T02:57:49;1.07;;;1.00;;
15228;SDS011;7717;47.792;12.076;2023-11-18T03:00:16;1.17;;;0.90;;
15228;SDS011;7717;47.792;12.076;2023-11-18T03:02:51;1.20;;;1.10;;
15228;SDS011;7717;47.792;12.076;2023-11-18T03:05:17;1.23;;;1.00;;
15228;SDS011;7717;47.792;12.076;2023-11-18T03:07:45;1.47;;;1.07;;
15228;SDS011;7717;47.792;12.076;2023-11-18T03:10:12;1.30;;;1.20;;
15228;SDS011;7717;47.792;12.076;2023-11-18T03:12:46;1.03;;;0.97;;
15228;SDS011;7717;47.792;12.076;2023-11-18T03:15:15;1.07;;;0.83;;
15228;SDS011;7717;47.792;12.076;2023-11-18T03:17:47;1.00;;;1.00;;
15228;SDS011;7717;47.792;12.076;2023-11-18T03:20:18;0.90;;;0.90;;
15228;SDS011;7717;47.792;12.076;2023-11-18T03:22:44;0.60;;;0.60;;
15228;SDS011;7717;47.792;12.076;2023-11-18T03:25:14;0.57;;;0.57;;
15228;SDS011;7717;47.792;12.076;2023-11-18T03:27:40;1.00;;;1.00;;
15228;SDS011;7717;47.792;12.076;2023-11-18T03:30:06;1.00;;;1.00;;
15228;SDS011;7717;47.792;12.076;2023-11-18T03:32:36;0.80;;;0.80;;
15228;SDS011;7717;47.792;12.076;2023-11-18T03:35:03;0.90;;;0.90;;
15228;SDS011;7717;47.792;12.076;2023-11-18T03:37:32;0.70;;;0.70;;
15228;SDS011;7717;47.792;12.076;2023-11-18T03:39:57;0.80;;;0.80;;
15228;SDS011;7717;47.792;12.076;2023-11-18T03:42:23;0.70;;;0.70;;
15228;SDS011;7717;47.792;12.076;2023-11-18T03:44:48;0.80;;;0.80;;
15228;SDS011;7717;47.792;12.076;2023-11-18T03:47:14;0.73;;;0.73;;
15228;SDS011;7717;47.792;12.076;2023-11-18T03:49:40;0.83;;;0.83;;
15228;SDS011;7717;47.792;12.076;2023-11-18T03:52:06;0.90;;;0.90;;
15228;SDS011;7717;47.792;12.076;2023-11-18T03:54:31;0.63;;;0.63;;
15228;SDS011;7717;47.792;12.076;2023-11-18T03:56:57;0.90;;;0.90;;
15228;SDS011;7717;47.792;12.076;2023-11-18T03:59:23;0.60;;;0.60;;
15228;SDS011;7717;47.792;12.076;2023-11-18T04:01:48;0.70;;;0.70;;
15228;SDS011;7717;47.792;12.076;2023-11-18T04:04:16;0.40;;;0.40;;
15228;SDS011;7717;47.792;12.076;2023-11-18T04:06:41;0.63;;;0.63;;
15228;SDS011;7717;47.792;12.076;2023-11-18T04:09:07;0.63;;;0.63;;
15228;SDS011;7717;47.792;12.076;2023-11-18T04:11:34;0.60;;;0.60;;
15228;SDS011;7717;47.792;12.076;2023-11-18T04:14:00;1.00;;;0.60;;
15228;SDS011;7717;47.792;12.076;2023-11-18T04:16:25;0.53;;;0.53;;
15228;SDS011;7717;47.792;12.076;2023-11-18T04:18:50;0.80;;;0.80;;
15228;SDS011;7717;47.792;12.076;2023-11-18T04:21:16;0.60;;;0.60;;
15228;SDS011;7717;47.792;12.076;2023-11-18T04:23:42;0.70;;;0.70;;
15228;SDS011;7717;47.792;12.076;2023-11-18T04:26:09;0.67;;;0.67;;
15228;SDS011;7717;47.792;12.076;2023-11-18T04:28:34;4.57;;;2.40;;
15228;SDS011;7717;47.792;12.076;2023-11-18T04:31:00;1.07;;;1.00;;
15228;SDS011;7717;47.792;12.076;2023-11-18T04:33:27;0.90;;;0.80;;
15228;SDS011;7717;47.792;12.076;2023-11-18T04:36:00;0.67;;;0.67;;
15228;SDS011;7717;47.792;12.076;2023-11-18T04:38:26;0.80;;;0.80;;
15228;SDS011;7717;47.792;12.076;2023-11-18T04:40:52;0.90;;;0.90;;
15228;SDS011;7717;47.792;12.076;2023-11-18T04:43:19;0.93;;;0.93;;
15228;SDS011;7717;47.792;12.076;2023-11-18T04:45:45;1.30;;;1.20;;
15228;SDS011;7717;47.792;12.076;2023-11-18T04:48:11;1.10;;;1.10;;
15228;SDS011;7717;47.792;12.076;2023-11-18T04:50:39;1.00;;;1.00;;
15228;SDS011;7717;47.792;12.076;2023-11-18T04:53:05;1.40;;;1.30;;
15228;SDS011;7717;47.792;12.076;2023-11-18T04:55:33;2.50;;;1.87;;
15228;SDS011;7717;47.792;12.076;2023-11-18T04:58:02;1.73;;;1.63;;
15228;SDS011;7717;47.792;12.076;2023-11-18T05:00:29;1.03;;;1.03;;
15228;SDS011;7717;47.792;12.076;2023-11-18T05:02:54;1.70;;;1.60;;
15228;SDS011;7717;47.792;12.076;2023-11-18T05:05:20;1.37;;;1.27;;
15228;SDS011;7717;47.792;12.076;2023-11-18T05:07:47;1.40;;;1.30;;
15228;SDS011;7717;47.792;12.076;2023-11-18T05:10:12;1.63;;;1.50;;
15228;SDS011;7717;47.792;12.076;2023-11-18T05:12:38;1.40;;;1.30;;
15228;SDS011;7717;47.792;12.076;2023-11-18T05:15:05;1.10;;;1.10;;
15228;SDS011;7717;47.792;12.076;2023-11-18T05:17:32;1.40;;;1.30;;
15228;SDS011;7717;47.792;12.076;2023-11-18T05:20:04;1.90;;;1.63;;
15228;SDS011;7717;47.792;12.076;2023-11-18T05:22:36;3.77;;;2.47;;
15228;SDS011;7717;47.792;12.076;2023-11-18T05:25:04;6.90;;;3.77;;
15228;SDS011;7717;47.792;12.076;2023-11-18T05:27:30;5.60;;;3.37;;
15228;SDS011;7717;47.792;12.076;2023-11-18T05:29:56;3.20;;;2.00;;
15228;SDS011;7717;47.792;12.076;2023-11-18T05:32:26;3.70;;;2.47;;
15228;SDS011;7717;47.792;12.076;2023-11-18T05:34:52;6.07;;;2.33;;
15228;SDS011;7717;47.792;12.076;2023-11-18T05:37:22;2.27;;;1.80;;
15228;SDS011;7717;47.792;12.076;2023-11-18T05:39:48;2.03;;;1.90;;
15228;SDS011;7717;47.792;12.076;2023-11-18T05:42:19;1.83;;;1.73;;
15228;SDS011;7717;47.792;12.076;2023-11-18T05:44:44;1.87;;;1.77;;
15228;SDS011;7717;47.792;12.076;2023-11-18T05:47:10;1.40;;;1.30;;
15228;SDS011;7717;47.792;12.076;2023-11-18T05:49:41;1.90;;;1.70;;
15228;SDS011;7717;47.792;12.076;2023-11-18T05:52:06;2.33;;;2.13;;
15228;SDS011;7717;47.792;12.076;2023-11-18T05:54:32;1.93;;;1.83;;
15228;SDS011;7717;47.792;12.076;2023-11-18T05:56:57;1.87;;;1.77;;
15228;SDS011;7717;47.792;12.076;2023-11-18T05:59:24;1.60;;;1.50;;
15228;SDS011;7717;47.792;12.076;2023-11-18T06:01:51;1.90;;;1.80;;
15228;SDS011;7717;47.792;12.076;2023-11-18T06:04:17;1.90;;;1.80;;
15228;SDS011;7717;47.792;12.076;2023-11-18T06:06:42;2.83;;;2.33;;
15228;SDS011;7717;47.792;12.076;2023-11-18T06:09:08;2.33;;;2.10;;
15228;SDS011;7717;47.792;12.076;2023-11-18T06:11:45;3.17;;;2.20;;
15228;SDS011;7717;47.792;12.076;2023-11-18T06:14:10;4.23;;;2.90;;
15228;SDS011;7717;47.792;12.076;2023-11-18T06:16:37;5.33;;;3.70;;
15228;SDS011;7717;47.792;12.076;2023-11-18T06:19:04;6.17;;;4.30;;
15228;SDS011;7717;47.792;12.076;2023-11-18T06:21:30;3.00;;;2.70;;
15228;SDS011;7717;47.792;12.076;2023-11-18T06:23:59;1.60;;;1.50;;
15228;SDS011;7717;47.792;12.076;2023-11-18T06:26:25;1.87;;;1.77;;
15228;SDS011;7717;47.792;12.076;2023-11-18T06:28:52;2.50;;;2.30;;
15228;SDS011;7717;47.792;12.076;2023-11-18T06:31:19;2.20;;;2.00;;
15228;SDS011;7717;47.792;12.076;2023-11-18T06:33:45;1.80;;;1.60;;
15228;SDS011;7717;47.792;12.076;2023-11-18T06:38:50;1.43;;;1.33;;
15228;SDS011;7717;47.792;12.076;2023-11-18T06:41:17;1.00;;;1.00;;
15228;SDS011;7717;47.792;12.076;2023-11-18T06:43:44;4.17;;;2.60;;
15228;SDS011;7717;47.792;12.076;2023-11-18T06:46:23;3.10;;;2.23;;
15228;SDS011;7717;47.792;12.076;2023-11-18T06:48:51;1.00;;;1.00;;
15228;SDS011;7717;47.792;12.076;2023-11-18T06:51:22;1.33;;;1.13;;
15228;SDS011;7717;47.792;12.076;2023-11-18T06:53:53;0.80;;;0.80;;
15228;SDS011;7717;47.792;12.076;2023-11-18T06:56:25;2.17;;;1.67;;
15228;SDS011;7717;47.792;12.076;2023-11-18T06:58:52;5.00;;;3.33;;
15228;SDS011;7717;47.792;12.076;2023-11-18T07:01:17;2.03;;;1.67;;
15228;SDS011;7717;47.792;12.076;2023-11-18T07:03:46;2.07;;;1.60;;
15228;SDS011;7717;47.792;12.076;2023-11-18T07:06:17;8.37;;;5.00;;
15228;SDS011;7717;47.792;12.076;2023-11-18T07:08:47;3.77;;;2.50;;
15228;SDS011;7717;47.792;12.076;2023-11-18T07:11:14;2.13;;;1.47;;
15228;SDS011;7717;47.792;12.076;2023-11-18T07:13:40;1.37;;;1.27;;
15228;SDS011;7717;47.792;12.076;2023-11-18T07:16:06;1.43;;;1.33;;
15228;SDS011;7717;47.792;12.076;2023-11-18T07:18:37;2.93;;;2.33;;
15228;SDS011;7717;47.792;12.076;2023-11-18T07:21:06;3.57;;;2.70;;
15228;SDS011;7717;47.792;12.076;2023-11-18T07:23:32;3.13;;;2.70;;
15228;SDS011;7717;47.792;12.076;2023-11-18T07:26:01;1.30;;;1.20;;
15228;SDS011;7717;47.792;12.076;2023-11-18T07:28:28;0.97;;;0.97;;
15228;SDS011;7717;47.792;12.076;2023-11-18T07:30:54;2.93;;;1.33;;
15228;SDS011;7717;47.792;12.076;2023-11-18T07:33:20;2.00;;;1.80;;
15228;SDS011;7717;47.792;12.076;2023-11-18T07:35:49;1.63;;;1.50;;
15228;SDS011;7717;47.792;12.076;2023-11-18T07:38:15;1.50;;;1.40;;
15228;SDS011;7717;47.792;12.076;2023-11-18T07:40:41;3.43;;;2.93;;
15228;SDS011;7717;47.792;12.076;2023-11-18T07:43:10;6.57;;;3.90;;
15228;SDS011;7717;47.792;12.076;2023-11-18T07:45:41;6.47;;;3.90;;
15228;SDS011;7717;47.792;12.076;2023-11-18T07:48:08;2.20;;;1.70;;
15228;SDS011;7717;47.792;12.076;2023-11-18T07:50:35;2.03;;;1.30;;
15228;SDS011;7717;47.792;12.076;2023-11-18T07:53:01;3.87;;;2.47;;
15228;SDS011;7717;47.792;12.076;2023-11-18T07:55:27;1.60;;;1.50;;
15228;SDS011;7717;47.792;12.076;2023-11-18T07:57:53;2.93;;;1.97;;
15228;SDS011;7717;47.792;12.076;2023-11-18T08:00:19;1.10;;;1.10;;
15228;SDS011;7717;47.792;12.076;2023-11-18T08:02:44;1.30;;;1.20;;
15228;SDS011;7717;47.792;12.076;2023-11-18T08:05:10;1.67;;;1.57;;
15228;SDS011;7717;47.792;12.076;2023-11-18T08:07:39;1.70;;;1.60;;
15228;SDS011;7717;47.792;12.076;2023-11-18T08:10:05;2.00;;;1.70;;
15228;SDS011;7717;47.792;12.076;2023-11-18T08:12:32;1.70;;;1.60;;
15228;SDS011;7717;47.792;12.076;2023-11-18T08:14:59;2.73;;;1.87;;
15228;SDS011;7717;47.792;12.076;2023-11-18T08:17:25;2.00;;;1.80;;
15228;SDS011;7717;47.792;12.076;2023-11-18T08:19:51;3.23;;;2.33;;
15228;SDS011;7717;47.792;12.076;2023-11-18T08:22:18;4.13;;;3.53;;
15228;SDS011;7717;47.792;12.076;2023-11-18T08:24:47;3.87;;;3.47;;
15228;SDS011;7717;47.792;12.076;2023-11-18T08:27:13;4.43;;;4.03;;
15228;SDS011;7717;47.792;12.076;2023-11-18T08:29:39;11.87;;;8.33;;
15228;SDS011;7717;47.792;12.076;2023-11-18T08:32:05;28.47;;;17.73;;
15228;SDS011;7717;47.792;12.076;2023-11-18T08:34:32;12.13;;;8.03;;
15228;SDS011;7717;47.792;12.076;2023-11-18T08:37:01;3.00;;;2.70;;
15228;SDS011;7717;47.792;12.076;2023-11-18T08:39:28;3.67;;;2.60;;
15228;SDS011;7717;47.792;12.076;2023-11-18T08:41:54;3.80;;;2.23;;
15228;SDS011;7717;47.792;12.076;2023-11-18T08:44:20;3.83;;;3.17;;
15228;SDS011;7717;47.792;12.076;2023-11-18T08:46:45;3.27;;;2.90;;
15228;SDS011;7717;47.792;12.076;2023-11-18T08:49:11;7.10;;;6.50;;
15228;SDS011;7717;47.792;12.076;2023-11-18T08:51:37;9.07;;;7.97;;
15228;SDS011;7717;47.792;12.076;2023-11-18T08:54:03;34.50;;;21.87;;
15228;SDS011;7717;47.792;12.076;2023-11-18T08:56:47;23.53;;;15.80;;
15228;SDS011;7717;47.792;12.076;2023-11-18T08:59:19;15.17;;;10.30;;
15228;SDS011;7717;47.792;12.076;2023-11-18T09:01:52;16.90;;;10.83;;
15228;SDS011;7717;47.792;12.076;2023-11-18T09:04:21;68.37;;;36.90;;
15228;SDS011;7717;47.792;12.076;2023-11-18T09:06:48;6.73;;;5.63;;
15228;SDS011;7717;47.792;12.076;2023-11-18T09:09:13;14.07;;;8.97;;
15228;SDS011;7717;47.792;12.076;2023-11-18T09:11:40;19.07;;;11.00;;
15228;SDS011;7717;47.792;12.076;2023-11-18T09:14:07;3.57;;;3.23;;
15228;SDS011;7717;47.792;12.076;2023-11-18T09:16:34;41.33;;;21.33;;
15228;SDS011;7717;47.792;12.076;2023-11-18T09:19:04;12.07;;;7.77;;
15228;SDS011;7717;47.792;12.076;2023-11-18T09:21:31;25.27;;;13.43;;
15228;SDS011;7717;47.792;12.076;2023-11-18T09:24:00;67.57;;;35.03;;
15228;SDS011;7717;47.792;12.076;2023-11-18T09:26:29;40.90;;;21.73;;
15228;SDS011;7717;47.792;12.076;2023-11-18T09:28:55;5.90;;;3.97;;
15228;SDS011;7717;47.792;12.076;2023-11-18T09:31:22;61.17;;;30.00;;
15228;SDS011;7717;47.792;12.076;2023-11-18T09:33:48;64.50;;;30.30;;
15228;SDS011;7717;47.792;12.076;2023-11-18T09:36:17;68.70;;;31.27;;
15228;SDS011;7717;47.792;12.076;2023-11-18T09:38:43;49.50;;;22.90;;
15228;SDS011;7717;47.792;12.076;2023-11-18T09:41:12;32.13;;;15.93;;
15228;SDS011;7717;47.792;12.076;2023-11-18T09:43:44;21.40;;;10.50;;
15228;SDS011;7717;47.792;12.076;2023-11-18T09:46:15;11.17;;;6.83;;
15228;SDS011;7717;47.792;12.076;2023-11-18T09:48:47;4.03;;;3.13;;
15228;SDS011;7717;47.792;12.076;2023-11-18T09:51:24;31.77;;;15.27;;
15228;SDS011;7717;47.792;12.076;2023-11-18T09:54:01;6.80;;;5.10;;
15228;SDS011;7717;47.792;12.076;2023-11-18T09:56:37;12.37;;;5.63;;
15228;SDS011;7717;47.792;12.076;2023-11-18T09:59:22;39.20;;;17.30;;
15228;SDS011;7717;47.792;12.076;2023-11-18T10:01:56;9.27;;;7.07;;
15228;SDS011;7717;47.792;12.076;2023-11-18T10:04:23;25.27;;;18.10;;
15228;SDS011;7717;47.792;12.076;2023-11-18T10:06:55;4.47;;;3.93;;
15228;SDS011;7717;47.792;12.076;2023-11-18T10:09:25;6.50;;;3.83;;
15228;SDS011;7717;47.792;12.076;2023-11-18T10:12:02;11.47;;;9.27;;
15228;SDS011;7717;47.792;12.076;2023-11-18T10:14:34;4.33;;;3.27;;
15228;SDS011;7717;47.792;12.076;2023-11-18T10:17:03;3.83;;;1.70;;
15228;SDS011;7717;47.792;12.076;2023-11-18T10:22:23;4.00;;;2.63;;
15228;SDS011;7717;47.792;12.076;2023-11-18T10:24:53;6.73;;;4.10;;
15228;SDS011;7717;47.792;12.076;2023-11-18T10:27:26;8.97;;;4.87;;
15228;SDS011;7717;47.792;12.076;2023-11-18T10:30:04;36.87;;;19.23;;
15228;SDS011;7717;47.792;12.076;2023-11-18T10:32:31;35.87;;;17.87;;
15228;SDS011;7717;47.792;12.076;2023-11-18T10:35:03;15.17;;;9.07;;
15228;SDS011;7717;47.792;12.076;2023-11-18T10:37:35;9.40;;;6.17;;
15228;SDS011;7717;47.792;12.076;2023-11-18T10:40:07;6.07;;;4.30;;
15228;SDS011;7717;47.792;12.076;2023-11-18T10:42:47;4.67;;;3.47;;
15228;SDS011;7717;47.792;12.076;2023-11-18T10:45:24;31.10;;;18.57;;
15228;SDS011;7717;47.792;12.076;2023-11-18T10:48:01;6.33;;;4.00;;
15228;SDS011;7717;47.792;12.076;2023-11-18T10:50:57;5.43;;;3.93;;
15228;SDS011;7717;47.792;12.076;2023-11-18T10:53:35;1.23;;;1.13;;
15228;SDS011;7717;47.792;12.076;2023-11-18T10:56:30;1.53;;;1.30;;
15228;SDS011;7717;47.792;12.076;2023-11-18T10:59:04;0.63;;;0.63;;
15228;SDS011;7717;47.792;12.076;2023-11-18T11:01:36;0.87;;;0.80;;
15228;SDS011;7717;47.792;12.076;2023-11-18T11:04:10;1.30;;;1.00;;
15228;SDS011;7717;47.792;12.076;2023-11-18T11:06:50;1.40;;;1.30;;
15228;SDS011;7717;47.792;12.076;2023-11-18T11:09:22;1.10;;;1.10;;
15228;SDS011;7717;47.792;12.076;2023-11-18T11:12:10;1.07;;;1.03;;
15228;SDS011;7717;47.792;12.076;2023-11-18T11:15:12;0.93;;;0.90;;
15228;SDS011;7717;47.792;12.076;2023-11-18T11:17:54;0.70;;;0.70;;
15228;SDS011;7717;47.792;12.076;2023-11-18T11:20:31;0.80;;;0.80;;
15228;SDS011;7717;47.792;12.076;2023-11-18T11:26:57;1.73;;;1.40;;
15228;SDS011;7717;47.792;12.076;2023-11-18T11:29:41;1.50;;;1.40;;
15228;SDS011;7717;47.792;12.076;2023-11-18T11:35:23;1.50;;;1.40;;
15228;SDS011;7717;47.792;12.076;2023-11-18T11:37:56;1.17;;;1.17;;
15228;SDS011;7717;47.792;12.076;2023-11-18T11:40:37;1.47;;;1.20;;
15228;SDS011;7717;47.792;12.076;2023-11-18T11:43:04;1.30;;;1.20;;
15228;SDS011;7717;47.792;12.076;2023-11-18T11:45:35;2.10;;;1.43;;
15228;SDS011;7717;47.792;12.076;2023-11-18T11:48:06;1.10;;;1.00;;
15228;SDS011;7717;47.792;12.076;2023-11-18T11:54:41;1.47;;;1.37;;
15228;SDS011;7717;47.792;12.076;2023-11-18T11:56:50;1.20;;;1.10;;
15228;SDS011;7717;47.792;12.076;2023-11-18T11:59:53;1.17;;;1.10;;
15228;SDS011;7717;47.792;12.076;2023-11-18T12:02:25;1.60;;;1.50;;
15228;SDS011;7717;47.792;12.076;2023-11-18T12:04:54;1.30;;;1.20;;
15228;SDS011;7717;47.792;12.076;2023-11-18T12:07:24;1.03;;;0.90;;
15228;SDS011;7717;47.792;12.076;2023-11-18T12:09:58;1.13;;;1.03;;
15228;SDS011;7717;47.792;12.076;2023-11-18T12:12:26;1.23;;;0.87;;
15228;SDS011;7717;47.792;12.076;2023-11-18T12:14:57;1.30;;;1.20;;
15228;SDS011;7717;47.792;12.076;2023-11-18T12:20:38;1.67;;;1.40;;
15228;SDS011;7717;47.792;12.076;2023-11-18T12:23:29;1.43;;;1.33;;
15228;SDS011;7717;47.792;12.076;2023-11-18T12:25:59;1.20;;;1.10;;
15228;SDS011;7717;47.792;12.076;2023-11-18T12:28:52;2.53;;;1.30;;
15228;SDS011;7717;47.792;12.076;2023-11-18T12:31:38;1.53;;;1.20;;
15228;SDS011;7717;47.792;12.076;2023-11-18T12:34:05;1.70;;;1.53;;
15228;SDS011;7717;47.792;12.076;2023-11-18T12:36:47;1.63;;;1.53;;
15228;SDS011;7717;47.792;12.076;2023-11-18T12:39:50;1.00;;;1.00;;
15228;SDS011;7717;47.792;12.076;2023-11-18T12:48:05;1.23;;;1.07;;
15228;SDS011;7717;47.792;12.076;2023-11-18T12:50:43;1.23;;;1.17;;
15228;SDS011;7717;47.792;12.076;2023-11-18T12:53:11;1.67;;;0.90;;
15228;SDS011;7717;47.792;12.076;2023-11-18T12:55:42;1.43;;;1.33;;
15228;SDS011;7717;47.792;12.076;2023-11-18T12:58:09;2.43;;;1.30;;
15228;SDS011;7717;47.792;12.076;2023-11-18T13:00:39;1.30;;;1.20;;
15228;SDS011;7717;47.792;12.076;2023-11-18T13:03:08;3.97;;;1.57;;
15228;SDS011;7717;47.792;12.076;2023-11-18T13:05:35;2.07;;;1.83;;
15228;SDS011;7717;47.792;12.076;2023-11-18T13:08:11;1.70;;;1.60;;
15228;SDS011;7717;47.792;12.076;2023-11-18T13:10:44;5.03;;;3.00;;
15228;SDS011;7717;47.792;12.076;2023-11-18T13:13:23;2.67;;;2.13;;
15228;SDS011;7717;47.792;12.076;2023-11-18T13:15:57;2.90;;;2.70;;
15228;SDS011;7717;47.792;12.076;2023-11-18T13:18:27;2.40;;;2.20;;
15228;SDS011;7717;47.792;12.076;2023-11-18T13:20:57;3.20;;;2.67;;
15228;SDS011;7717;47.792;12.076;2023-11-18T13:23:28;2.50;;;2.30;;
15228;SDS011;7717;47.792;12.076;2023-11-18T13:26:04;2.47;;;2.27;;
15228;SDS011;7717;47.792;12.076;2023-11-18T13:28:35;2.60;;;2.40;;
15228;SDS011;7717;47.792;12.076;2023-11-18T13:31:05;4.20;;;3.80;;
15228;SDS011;7717;47.792;12.076;2023-11-18T13:33:48;2.10;;;2.00;;
15228;SDS011;7717;47.792;12.076;2023-11-18T13:36:17;3.60;;;2.50;;
15228;SDS011;7717;47.792;12.076;2023-11-18T13:38:47;2.20;;;2.00;;
15228;SDS011;7717;47.792;12.076;2023-11-18T13:41:37;2.37;;;2.17;;
15228;SDS011;7717;47.792;12.076;2023-11-18T13:44:06;2.20;;;2.00;;
15228;SDS011;7717;47.792;12.076;2023-11-18T13:46:31;2.50;;;2.10;;
15228;SDS011;7717;47.792;12.076;2023-11-18T13:49:13;2.77;;;2.00;;
15228;SDS011;7717;47.792;12.076;2023-11-18T13:51:39;2.53;;;2.33;;
15228;SDS011;7717;47.792;12.076;2023-11-18T13:54:16;3.20;;;2.27;;
15228;SDS011;7717;47.792;12.076;2023-11-18T13:57:06;2.30;;;2.10;;
15228;SDS011;7717;47.792;12.076;2023-11-18T13:59:41;3.07;;;2.77;;
15228;SDS011;7717;47.792;12.076;2023-11-18T14:02:11;4.03;;;2.73;;
15228;SDS011;7717;47.792;12.076;2023-11-18T14:04:38;3.27;;;2.97;;
15228;SDS011;7717;47.792;12.076;2023-11-18T14:07:14;4.40;;;4.10;;
15228;SDS011;7717;47.792;12.076;2023-11-18T14:09:43;4.50;;;4.10;;
15228;SDS011;7717;47.792;12.076;2023-11-18T14:12:13;7.67;;;5.70;;
15228;SDS011;7717;47.792;12.076;2023-11-18T14:14:39;6.90;;;6.23;;
15228;SDS011;7717;47.792;12.076;2023-11-18T14:17:07;7.60;;;5.47;;
15228;SDS011;7717;47.792;12.076;2023-11-18T14:19:35;8.63;;;5.60;;
15228;SDS011;7717;47.792;12.076;2023-11-18T14:22:09;16.60;;;10.83;;
15228;SDS011;7717;47.792;12.076;2023-11-18T14:24:40;7.13;;;5.37;;
15228;SDS011;7717;47.792;12.076;2023-11-18T14:27:19;5.00;;;4.50;;
15228;SDS011;7717;47.792;12.076;2023-11-18T14:29:44;5.30;;;4.20;;
15228;SDS011;7717;47.792;12.076;2023-11-18T14:32:11;4.87;;;4.37;;
15228;SDS011;7717;47.792;12.076;2023-11-18T14:34:48;4.80;;;4.30;;
15228;SDS011;7717;47.792;12.076;2023-11-18T14:37:21;4.60;;;4.20;;
15228;SDS011;7717;47.792;12.076;2023-11-18T14:39:47;4.33;;;3.93;;
15228;SDS011;7717;47.792;12.076;2023-11-18T14:42:13;4.63;;;4.20;;
15228;SDS011;7717;47.792;12.076;2023-11-18T14:44:38;5.90;;;5.30;;
15228;SDS011;7717;47.792;12.076;2023-11-18T14:47:04;5.63;;;5.13;;
15228;SDS011;7717;47.792;12.076;2023-11-18T14:49:32;5.93;;;5.33;;
15228;SDS011;7717;47.792;12.076;2023-11-18T14:51:58;4.67;;;4.27;;
15228;SDS011;7717;47.792;12.076;2023-11-18T14:54:23;5.47;;;4.57;;
15228;SDS011;7717;47.792;12.076;2023-11-18T14:56:49;5.23;;;4.73;;
15228;SDS011;7717;47.792;12.076;2023-11-18T14:59:14;6.03;;;4.90;;
15228;SDS011;7717;47.792;12.076;2023-11-18T15:01:40;5.13;;;4.27;;
15228;SDS011;7717;47.792;12.076;2023-11-18T15:04:09;4.90;;;4.40;;
15228;SDS011;7717;47.792;12.076;2023-11-18T15:06:35;4.53;;;4.10;;
15228;SDS011;7717;47.792;12.076;2023-11-18T15:09:01;3.90;;;3.50;;
15228;SDS011;7717;47.792;12.076;2023-11-18T15:11:28;4.07;;;3.67;;
15228;SDS011;7717;47.792;12.076;2023-11-18T15:13:54;4.43;;;4.03;;
15228;SDS011;7717;47.792;12.076;2023-11-18T15:16:21;5.80;;;4.77;;
15228;SDS011;7717;47.792;12.076;2023-11-18T15:18:47;5.10;;;4.10;;
15228;SDS011;7717;47.792;12.076;2023-11-18T15:21:17;5.23;;;4.00;;
15228;SDS011;7717;47.792;12.076;2023-11-18T15:23:43;5.80;;;3.80;;